sensor_id;sensor_type;location;lat;lon;timestamp;pressure;altitude;pressure_sealevel;temperature;humidity
42111;BME280;27766;52.174;5.456;2023-05-11T00:01:04;101337.25;;;13.72;100.00
42111;BME280;27766;52.174;5.456;2023-05-11T00:03:32;101339.03;;;13.75;100.00
42111;BME280;27766;52.174;5.456;2023-05-11T00:05:59;101330.28;;;13.70;100.00
42111;BME280;27766;52.174;5.456;2023-05-11T00:08:27;101339.97;;;13.80;100.00
42111;BME280;27766;52.174;5.456;2023-05-11T00:10:54;101346.09;;;13.85;100.00
42111;BME280;27766;52.174;5.456;2023-05-11T00:13:21;101346.13;;;13.87;100.00
42111;BME280;27766;52.174;5.456;2023-05-11T00:15:48;101341.72;;;13.83;100.00
42111;BME280;27766;52.174;5.456;2023-05-11T00:18:15;101342.56;;;13.80;100.00
42111;BME280;27766;52.174;5.456;2023-05-11T00:20:42;101345.13;;;13.77;100.00
42111;BME280;27766;52.174;5.456;2023-05-11T00:23:09;101332.88;;;13.70;100.00
42111;BME280;27766;52.174;5.456;2023-05-11T00:25:37;101333.72;;;13.66;100.00
42111;BME280;27766;52.174;5.456;2023-05-11T00:28:05;101332.09;;;13.75;100.00
42111;BME280;27766;52.174;5.456;2023-05-11T00:30:33;101328.63;;;13.75;100.00
42111;BME280;27766;52.174;5.456;2023-05-11T00:33:00;101327.66;;;13.67;100.00
42111;BME280;27766;52.174;5.456;2023-05-11T00:35:27;101327.66;;;13.67;100.00
42111;BME280;27766;52.174;5.456;2023-05-11T00:37:54;101324.16;;;13.65;100.00
42111;BME280;27766;52.174;5.456;2023-05-11T00:40:23;101317.16;;;13.60;100.00
42111;BME280;27766;52.174;5.456;2023-05-11T00:42:50;101319.78;;;13.62;100.00
42111;BME280;27766;52.174;5.456;2023-05-11T00:45:17;101328.41;;;13.58;100.00
42111;BME280;27766;52.174;5.456;2023-05-11T00:47:44;101329.22;;;13.54;100.00
42111;BME280;27766;52.174;5.456;2023-05-11T00:50:12;101324.88;;;13.53;100.00
42111;BME280;27766;52.174;5.456;2023-05-11T00:52:40;101330.91;;;13.50;100.00
42111;BME280;27766;52.174;5.456;2023-05-11T00:55:08;101329.91;;;13.42;100.00
42111;BME280;27766;52.174;5.456;2023-05-11T00:57:37;101330.66;;;13.36;100.00
42111;BME280;27766;52.174;5.456;2023-05-11T01:00:05;101336.06;;;13.47;100.00
42111;BME280;27766;52.174;5.456;2023-05-11T01:02:33;101336.13;;;13.53;100.00
42111;BME280;27766;52.174;5.456;2023-05-11T01:05:00;101335.34;;;13.57;100.00
42111;BME280;27766;52.174;5.456;2023-05-11T01:07:57;101334.41;;;13.52;100.00
42111;BME280;27766;52.174;5.456;2023-05-11T01:10:31;101340.47;;;13.54;100.00
42111;BME280;27766;52.174;5.456;2023-05-11T01:15:47;101343.06;;;13.51;100.00
42111;BME280;27766;52.174;5.456;2023-05-11T01:18:18;101344.81;;;13.52;100.00
42111;BME280;27766;52.174;5.456;2023-05-11T01:20:48;101335.28;;;13.53;100.00
42111;BME280;27766;52.174;5.456;2023-05-11T01:31:14;101331.00;;;13.58;100.00
42111;BME280;27766;52.174;5.456;2023-05-11T01:33:46;101332.81;;;13.62;100.00
42111;BME280;27766;52.174;5.456;2023-05-11T01:36:18;101344.13;;;13.66;100.00
42111;BME280;27766;52.174;5.456;2023-05-11T01:38:47;101335.41;;;13.65;100.00
42111;BME280;27766;52.174;5.456;2023-05-11T01:41:17;101334.63;;;13.71;100.00
42111;BME280;27766;52.174;5.456;2023-05-11T01:43:52;101338.03;;;13.65;100.00
42111;BME280;27766;52.174;5.456;2023-05-11T01:46:26;101332.75;;;13.60;100.00
42111;BME280;27766;52.174;5.456;2023-05-11T01:48:55;101341.44;;;13.61;100.00
42111;BME280;27766;52.174;5.456;2023-05-11T01:51:26;101326.56;;;13.49;100.00
42111;BME280;27766;52.174;5.456;2023-05-11T01:53:55;101338.78;;;13.55;100.00
42111;BME280;27766;52.174;5.456;2023-05-11T01:56:24;101341.34;;;13.53;100.00
42111;BME280;27766;52.174;5.456;2023-05-11T01:58:54;101344.75;;;13.49;100.00
42111;BME280;27766;52.174;5.456;2023-05-11T02:01:23;101336.06;;;13.47;100.00
42111;BME280;27766;52.174;5.456;2023-05-11T02:03:52;101343.00;;;13.47;100.00
42111;BME280;27766;52.174;5.456;2023-05-11T02:06:21;101345.53;;;13.43;100.00
42111;BME280;27766;52.174;5.456;2023-05-11T02:08:49;101346.44;;;13.44;100.00
42111;BME280;27766;52.174;5.456;2023-05-11T02:11:19;101350.72;;;13.43;100.00
42111;BME280;27766;52.174;5.456;2023-05-11T02:13:49;101350.72;;;13.43;100.00
42111;BME280;27766;52.174;5.456;2023-05-11T02:16:18;101348.16;;;13.45;100.00
42111;BME280;27766;52.174;5.456;2023-05-11T02:18:46;101349.91;;;13.46;100.00
42111;BME280;27766;52.174;5.456;2023-05-11T02:21:15;101351.66;;;13.47;100.00
42111;BME280;27766;52.174;5.456;2023-05-11T02:23:43;101342.94;;;13.45;100.00
42111;BME280;27766;52.174;5.456;2023-05-11T02:26:13;101354.25;;;13.49;100.00
42111;BME280;27766;52.174;5.456;2023-05-11T02:28:42;101341.25;;;13.49;100.00
42111;BME280;27766;52.174;5.456;2023-05-11T02:31:15;101346.44;;;13.47;100.00
42111;BME280;27766;52.174;5.456;2023-05-11T02:33:47;101345.59;;;13.48;100.00
42111;BME280;27766;52.174;5.456;2023-05-11T02:36:21;101344.56;;;13.37;100.00
42111;BME280;27766;52.174;5.456;2023-05-11T02:38:55;101355.91;;;13.42;100.00
42111;BME280;27766;52.174;5.456;2023-05-11T02:41:26;101354.22;;;13.44;100.00
42111;BME280;27766;52.174;5.456;2023-05-11T02:43:55;101349.81;;;13.40;100.00
42111;BME280;27766;52.174;5.456;2023-05-11T02:46:27;101342.81;;;13.36;100.00
42111;BME280;27766;52.174;5.456;2023-05-11T02:48:57;101341.88;;;13.32;100.00
42111;BME280;27766;52.174;5.456;2023-05-11T02:51:36;101350.56;;;13.34;100.00
42111;BME280;27766;52.174;5.456;2023-05-11T02:54:05;101348.88;;;13.36;100.00
42111;BME280;27766;52.174;5.456;2023-05-11T02:56:34;101348.06;;;13.39;100.00
42111;BME280;27766;52.174;5.456;2023-05-11T02:59:01;101341.06;;;13.35;100.00
42111;BME280;27766;52.174;5.456;2023-05-11T03:01:29;101347.22;;;13.41;100.00
42111;BME280;27766;52.174;5.456;2023-05-11T03:03:56;101341.09;;;13.38;100.00
42111;BME280;27766;52.174;5.456;2023-05-11T03:06:24;101350.72;;;13.40;100.00
42111;BME280;27766;52.174;5.456;2023-05-11T03:08:51;101354.16;;;13.39;100.00
42111;BME280;27766;52.174;5.456;2023-05-11T03:11:18;101358.34;;;13.31;100.00
42111;BME280;27766;52.174;5.456;2023-05-11T03:13:47;101355.69;;;13.29;100.00
42111;BME280;27766;52.174;5.456;2023-05-11T03:16:16;101355.69;;;13.29;100.00
42111;BME280;27766;52.174;5.456;2023-05-11T03:18:48;101348.78;;;13.30;100.00
42111;BME280;27766;52.174;5.456;2023-05-11T03:21:17;101344.50;;;13.32;100.00
42111;BME280;27766;52.174;5.456;2023-05-11T03:23:48;101348.78;;;13.32;100.00
42111;BME280;27766;52.174;5.456;2023-05-11T03:26:16;101340.06;;;13.28;100.00
42111;BME280;27766;52.174;5.456;2023-05-11T03:28:45;101345.38;;;13.34;100.00
42111;BME280;27766;52.174;5.456;2023-05-11T03:31:13;101334.94;;;13.31;100.00
42111;BME280;27766;52.174;5.456;2023-05-11T03:33:40;101328.91;;;13.34;100.00
42111;BME280;27766;52.174;5.456;2023-05-11T03:36:09;101332.34;;;13.31;100.00
42111;BME280;27766;52.174;5.456;2023-05-11T03:38:38;101339.25;;;13.30;100.00
42111;BME280;27766;52.174;5.456;2023-05-11T03:41:05;101332.38;;;13.34;100.00
42111;BME280;27766;52.174;5.456;2023-05-11T03:43:34;101335.06;;;13.39;100.00
42111;BME280;27766;52.174;5.456;2023-05-11T03:46:03;101325.59;;;13.42;100.00
42111;BME280;27766;52.174;5.456;2023-05-11T03:48:32;101329.03;;;13.40;100.00
42111;BME280;27766;52.174;5.456;2023-05-11T03:50:59;101326.31;;;13.34;100.00
42111;BME280;27766;52.174;5.456;2023-05-11T03:53:26;101343.66;;;13.36;100.00
42111;BME280;27766;52.174;5.456;2023-05-11T03:55:53;101332.28;;;13.29;100.00
42111;BME280;27766;52.174;5.456;2023-05-11T03:58:22;101333.97;;;13.24;100.00
42111;BME280;27766;52.174;5.456;2023-05-11T04:00:49;101332.13;;;13.17;100.00
42111;BME280;27766;52.174;5.456;2023-05-11T04:03:16;101333.88;;;13.18;100.00
42111;BME280;27766;52.174;5.456;2023-05-11T04:05:44;101336.63;;;13.29;100.00
42111;BME280;27766;52.174;5.456;2023-05-11T04:08:11;101340.16;;;13.33;100.00
42111;BME280;27766;52.174;5.456;2023-05-11T04:10:39;101345.41;;;13.36;100.00
42111;BME280;27766;52.174;5.456;2023-05-11T04:13:06;101344.50;;;13.34;100.00
42111;BME280;27766;52.174;5.456;2023-05-11T04:15:33;101341.03;;;13.33;100.00
42111;BME280;27766;52.174;5.456;2023-05-11T04:18:02;101348.13;;;13.43;100.00
42111;BME280;27766;52.174;5.456;2023-05-11T04:20:29;101350.66;;;13.39;100.00
42111;BME280;27766;52.174;5.456;2023-05-11T04:22:56;101347.09;;;13.34;100.00
42111;BME280;27766;52.174;5.456;2023-05-11T04:25:23;101350.72;;;13.40;100.00
42111;BME280;27766;52.174;5.456;2023-05-11T04:27:51;101351.63;;;13.44;100.00
42111;BME280;27766;52.174;5.456;2023-05-11T04:30:19;101356.81;;;13.44;100.00
42111;BME280;27766;52.174;5.456;2023-05-11T04:32:47;101349.91;;;13.46;100.00
42111;BME280;27766;52.174;5.456;2023-05-11T04:35:15;101358.59;;;13.48;100.00
42111;BME280;27766;52.174;5.456;2023-05-11T04:37:42;101354.31;;;13.52;100.00
42111;BME280;27766;52.174;5.456;2023-05-11T04:40:10;101356.09;;;13.54;100.00
42111;BME280;27766;52.174;5.456;2023-05-11T04:42:37;101361.34;;;13.57;100.00
42111;BME280;27766;52.174;5.456;2023-05-11T04:45:05;101364.72;;;13.53;100.00
42111;BME280;27766;52.174;5.456;2023-05-11T04:47:32;101368.31;;;13.60;100.00
42111;BME280;27766;52.174;5.456;2023-05-11T04:50:00;101366.69;;;13.68;100.00
42111;BME280;27766;52.174;5.456;2023-05-11T04:52:27;101365.00;;;13.73;100.00
42111;BME280;27766;52.174;5.456;2023-05-11T04:54:54;101370.28;;;13.76;100.00
42111;BME280;27766;52.174;5.456;2023-05-11T04:57:22;101366.00;;;13.82;100.00
42111;BME280;27766;52.174;5.456;2023-05-11T04:59:49;101350.31;;;13.77;100.00
42111;BME280;27766;52.174;5.456;2023-05-11T05:02:16;101362.53;;;13.83;100.00
42111;BME280;27766;52.174;5.456;2023-05-11T05:04:43;101366.09;;;13.89;100.00
42111;BME280;27766;52.174;5.456;2023-05-11T05:07:10;101371.31;;;13.92;100.00
42111;BME280;27766;52.174;5.456;2023-05-11T05:09:38;101369.69;;;13.99;100.00
42111;BME280;27766;52.174;5.456;2023-05-11T05:12:05;101377.56;;;14.05;100.00
42111;BME280;27766;52.174;5.456;2023-05-11T05:14:32;101373.25;;;14.06;100.00
42111;BME280;27766;52.174;5.456;2023-05-11T05:17:00;101375.88;;;14.07;100.00
42111;BME280;27766;52.174;5.456;2023-05-11T05:19:27;101367.16;;;14.04;100.00
42111;BME280;27766;52.174;5.456;2023-05-11T05:21:54;101368.06;;;14.07;100.00
42111;BME280;27766;52.174;5.456;2023-05-11T05:24:22;101376.75;;;14.09;100.00
42111;BME280;27766;52.174;5.456;2023-05-11T05:26:49;101372.41;;;14.10;100.00
42111;BME280;27766;52.174;5.456;2023-05-11T05:29:16;101384.59;;;14.11;100.00
42111;BME280;27766;52.174;5.456;2023-05-11T05:31:43;101388.91;;;14.11;100.00
42111;BME280;27766;52.174;5.456;2023-05-11T05:34:10;101380.25;;;14.12;100.00
42111;BME280;27766;52.174;5.456;2023-05-11T05:36:37;101381.16;;;14.15;100.00
42111;BME280;27766;52.174;5.456;2023-05-11T05:39:05;101382.09;;;14.20;100.00
42111;BME280;27766;52.174;5.456;2023-05-11T05:41:37;101387.34;;;14.25;100.00
42111;BME280;27766;52.174;5.456;2023-05-11T05:44:05;101388.22;;;14.27;100.00
42111;BME280;27766;52.174;5.456;2023-05-11T05:46:32;101392.69;;;14.36;100.00
42111;BME280;27766;52.174;5.456;2023-05-11T05:48:59;101394.56;;;14.49;100.00
42111;BME280;27766;52.174;5.456;2023-05-11T05:51:26;101394.56;;;14.48;100.00
42111;BME280;27766;52.174;5.456;2023-05-11T05:53:54;101399.78;;;14.52;100.00
42111;BME280;27766;52.174;5.456;2023-05-11T05:56:21;101403.28;;;14.51;100.00
42111;BME280;27766;52.174;5.456;2023-05-11T05:58:48;101399.78;;;14.52;100.00
42111;BME280;27766;52.174;5.456;2023-05-11T06:01:15;101412.84;;;14.55;100.00
42111;BME280;27766;52.174;5.456;2023-05-11T06:03:42;101398.13;;;14.57;100.00
42111;BME280;27766;52.174;5.456;2023-05-11T06:06:12;101414.66;;;14.64;100.00
42111;BME280;27766;52.174;5.456;2023-05-11T06:08:39;101416.41;;;14.64;100.00
42111;BME280;27766;52.174;5.456;2023-05-11T06:11:06;101415.50;;;14.62;100.00
42111;BME280;27766;52.174;5.456;2023-05-11T06:13:33;101417.25;;;14.61;100.00
42111;BME280;27766;52.174;5.456;2023-05-11T06:16:00;101413.81;;;14.64;100.00
42111;BME280;27766;52.174;5.456;2023-05-11T06:18:28;101422.63;;;14.75;100.00
42111;BME280;27766;52.174;5.456;2023-05-11T06:20:55;101416.59;;;14.78;100.00
42111;BME280;27766;52.174;5.456;2023-05-11T06:23:22;101427.97;;;14.91;100.00
42111;BME280;27766;52.174;5.456;2023-05-11T06:25:49;101422.84;;;14.97;100.00
42111;BME280;27766;52.174;5.456;2023-05-11T06:28:16;101421.13;;;14.99;100.00
42111;BME280;27766;52.174;5.456;2023-05-11T06:30:44;101424.66;;;15.06;100.00
42111;BME280;27766;52.174;5.456;2023-05-11T06:33:11;101422.91;;;15.06;100.00
42111;BME280;27766;52.174;5.456;2023-05-11T06:35:38;101428.97;;;15.03;100.00
42111;BME280;27766;52.174;5.456;2023-05-11T06:38:05;101428.13;;;15.06;100.00
42111;BME280;27766;52.174;5.456;2023-05-11T06:40:33;101414.19;;;14.98;100.00
42111;BME280;27766;52.174;5.456;2023-05-11T06:43:00;101421.06;;;14.94;100.00
42111;BME280;27766;52.174;5.456;2023-05-11T06:45:27;101427.19;;;14.96;100.00
42111;BME280;27766;52.174;5.456;2023-05-11T06:47:54;101426.28;;;14.93;100.00
42111;BME280;27766;52.174;5.456;2023-05-11T06:50:21;101436.75;;;14.96;100.00
42111;BME280;27766;52.174;5.456;2023-05-11T06:52:53;101439.25;;;14.88;100.00
42111;BME280;27766;52.174;5.456;2023-05-11T06:55:21;101438.41;;;14.87;100.00
42111;BME280;27766;52.174;5.456;2023-05-11T06:57:48;101435.75;;;14.84;100.00
42111;BME280;27766;52.174;5.456;2023-05-11T07:00:16;101444.47;;;14.86;100.00
42111;BME280;27766;52.174;5.456;2023-05-11T07:02:44;101434.03;;;14.85;100.00
42111;BME280;27766;52.174;5.456;2023-05-11T07:05:11;101435.75;;;14.83;100.00
42111;BME280;27766;52.174;5.456;2023-05-11T07:07:38;101439.25;;;14.86;100.00
42111;BME280;27766;52.174;5.456;2023-05-11T07:10:06;101441.91;;;14.94;100.00
42111;BME280;27766;52.174;5.456;2023-05-11T07:12:33;101436.66;;;14.85;100.00
42111;BME280;27766;52.174;5.456;2023-05-11T07:15:01;101440.16;;;14.88;100.00
42111;BME280;27766;52.174;5.456;2023-05-11T07:17:28;101440.16;;;14.92;100.00
42111;BME280;27766;52.174;5.456;2023-05-11T07:19:55;101436.69;;;14.93;100.00
42111;BME280;27766;52.174;5.456;2023-05-11T07:22:22;101435.97;;;15.09;100.00
42111;BME280;27766;52.174;5.456;2023-05-11T07:24:49;101436.03;;;15.14;100.00
42111;BME280;27766;52.174;5.456;2023-05-11T07:27:16;101433.34;;;15.06;100.00
42111;BME280;27766;52.174;5.456;2023-05-11T07:29:44;101442.09;;;15.11;100.00
42111;BME280;27766;52.174;5.456;2023-05-11T07:32:11;101446.38;;;15.04;100.00
42111;BME280;27766;52.174;5.456;2023-05-11T07:34:39;101447.31;;;15.11;100.00
42111;BME280;27766;52.174;5.456;2023-05-11T07:37:07;101450.72;;;15.06;100.00
42111;BME280;27766;52.174;5.456;2023-05-11T07:39:34;101441.28;;;15.20;100.00
42111;BME280;27766;52.174;5.456;2023-05-11T07:42:01;101446.53;;;15.23;100.00
42111;BME280;27766;52.174;5.456;2023-05-11T07:44:29;101438.63;;;15.14;100.00
42111;BME280;27766;52.174;5.456;2023-05-11T07:46:56;101443.09;;;15.26;100.00
42111;BME280;27766;52.174;5.456;2023-05-11T07:49:24;101447.31;;;15.14;100.00
42111;BME280;27766;52.174;5.456;2023-05-11T07:52:08;101451.56;;;15.03;100.00
42111;BME280;27766;52.174;5.456;2023-05-11T07:54:35;101460.25;;;15.00;100.00
42111;BME280;27766;52.174;5.456;2023-05-11T07:57:03;101442.81;;;14.95;100.00
42111;BME280;27766;52.174;5.456;2023-05-11T07:59:31;101445.56;;;15.10;100.00
42111;BME280;27766;52.174;5.456;2023-05-11T08:01:58;101447.31;;;15.11;100.00
42111;BME280;27766;52.174;5.456;2023-05-11T08:04:26;101449.13;;;15.22;100.00
42111;BME280;27766;52.174;5.456;2023-05-11T08:06:53;101453.44;;;15.16;100.00
42111;BME280;27766;52.174;5.456;2023-05-11T08:09:21;101451.81;;;15.29;100.00
42111;BME280;27766;52.174;5.456;2023-05-11T08:11:48;101444.88;;;15.34;100.00
42111;BME280;27766;52.174;5.456;2023-05-11T08:14:15;101455.31;;;15.34;100.00
42111;BME280;27766;52.174;5.456;2023-05-11T08:16:43;101456.06;;;15.19;100.00
42111;BME280;27766;52.174;5.456;2023-05-11T08:19:10;101451.75;;;15.25;100.00
42111;BME280;27766;52.174;5.456;2023-05-11T08:21:38;101456.22;;;15.37;100.00
42111;BME280;27766;52.174;5.456;2023-05-11T08:24:06;101457.91;;;15.34;100.00
42111;BME280;27766;52.174;5.456;2023-05-11T08:26:33;101460.59;;;15.45;100.00
42111;BME280;27766;52.174;5.456;2023-05-11T08:29:01;101463.34;;;15.61;100.00
42111;BME280;27766;52.174;5.456;2023-05-11T08:31:30;101460.56;;;15.41;100.00
42111;BME280;27766;52.174;5.456;2023-05-11T08:33:57;101461.50;;;15.49;100.00
42111;BME280;27766;52.174;5.456;2023-05-11T08:36:24;101458.16;;;15.67;100.00
42111;BME280;27766;52.174;5.456;2023-05-11T08:38:51;101454.75;;;15.77;100.00
42111;BME280;27766;52.174;5.456;2023-05-11T08:41:24;101454.13;;;16.12;100.00
42111;BME280;27766;52.174;5.456;2023-05-11T08:43:53;101456.84;;;16.46;100.00
42111;BME280;27766;52.174;5.456;2023-05-11T08:46:22;101442.97;;;16.61;100.00
42111;BME280;27766;52.174;5.456;2023-05-11T08:48:53;101449.97;;;16.69;100.00
42111;BME280;27766;52.174;5.456;2023-05-11T08:51:21;101442.13;;;16.80;100.00
42111;BME280;27766;52.174;5.456;2023-05-11T08:53:49;101447.41;;;16.98;100.00
42111;BME280;27766;52.174;5.456;2023-05-11T08:56:16;101448.28;;;17.13;100.00
42111;BME280;27766;52.174;5.456;2023-05-11T08:58:45;101451.78;;;17.10;100.00
42111;BME280;27766;52.174;5.456;2023-05-11T09:01:12;101442.19;;;17.09;100.00
42111;BME280;27766;52.174;5.456;2023-05-11T09:03:42;101450.03;;;17.18;100.00
42111;BME280;27766;52.174;5.456;2023-05-11T09:06:10;101448.28;;;17.28;100.00
42111;BME280;27766;52.174;5.456;2023-05-11T09:08:38;101453.53;;;17.25;100.00
42111;BME280;27766;52.174;5.456;2023-05-11T09:11:05;101446.56;;;16.96;100.00
42111;BME280;27766;52.174;5.456;2023-05-11T09:13:33;101453.50;;;17.02;100.00
42111;BME280;27766;52.174;5.456;2023-05-11T09:16:01;101452.66;;;17.03;100.00
42111;BME280;27766;52.174;5.456;2023-05-11T09:18:28;101450.03;;;16.95;100.00
42111;BME280;27766;52.174;5.456;2023-05-11T09:20:55;101453.53;;;17.11;100.00
42111;BME280;27766;52.174;5.456;2023-05-11T09:23:24;101446.56;;;16.98;100.00
42111;BME280;27766;52.174;5.456;2023-05-11T09:25:54;101453.56;;;17.19;100.00
42111;BME280;27766;52.174;5.456;2023-05-11T09:28:25;101461.38;;;17.31;100.00
42111;BME280;27766;52.174;5.456;2023-05-11T09:30:53;101457.00;;;17.36;100.00
42111;BME280;27766;52.174;5.456;2023-05-11T09:33:23;101454.41;;;17.22;100.00
42111;BME280;27766;52.174;5.456;2023-05-11T09:35:52;101456.13;;;16.96;100.00
42111;BME280;27766;52.174;5.456;2023-05-11T09:38:19;101456.13;;;17.02;100.00
42111;BME280;27766;52.174;5.456;2023-05-11T09:40:51;101456.94;;;16.90;100.00
42111;BME280;27766;52.174;5.456;2023-05-11T09:43:25;101459.63;;;16.93;100.00
42111;BME280;27766;52.174;5.456;2023-05-11T09:45:57;101458.72;;;16.82;100.00
42111;BME280;27766;52.174;5.456;2023-05-11T09:48:29;101466.53;;;16.83;100.00
42111;BME280;27766;52.174;5.456;2023-05-11T09:53:33;101456.91;;;16.60;100.00
42111;BME280;27766;52.174;5.456;2023-05-11T09:56:01;101471.66;;;16.49;100.00
42111;BME280;27766;52.174;5.456;2023-05-11T10:01:10;101466.44;;;16.46;100.00
42111;BME280;27766;52.174;5.456;2023-05-11T10:03:45;101462.03;;;16.31;100.00
42111;BME280;27766;52.174;5.456;2023-05-11T10:06:14;101465.50;;;16.27;100.00
42111;BME280;27766;52.174;5.456;2023-05-11T10:08:44;101471.53;;;16.15;100.00
42111;BME280;27766;52.174;5.456;2023-05-11T10:11:12;101474.16;;;16.17;100.00
42111;BME280;27766;52.174;5.456;2023-05-11T10:13:39;101462.72;;;15.99;100.00
42111;BME280;27766;52.174;5.456;2023-05-11T10:16:08;101466.25;;;16.04;100.00
42111;BME280;27766;52.174;5.456;2023-05-11T10:18:36;101463.56;;;15.92;100.00
42111;BME280;27766;52.174;5.456;2023-05-11T10:21:03;101463.56;;;15.92;100.00
42111;BME280;27766;52.174;5.456;2023-05-11T10:23:31;101463.59;;;15.93;100.00
42111;BME280;27766;52.174;5.456;2023-05-11T10:25:59;101472.19;;;15.81;100.00
42111;BME280;27766;52.174;5.456;2023-05-11T10:28:27;101473.84;;;15.70;100.00
42111;BME280;27766;52.174;5.456;2023-05-11T10:30:57;101467.72;;;15.68;100.00
42111;BME280;27766;52.174;5.456;2023-05-11T10:33:25;101473.78;;;15.61;100.00
42111;BME280;27766;52.174;5.456;2023-05-11T10:35:53;101463.34;;;15.61;100.00
42111;BME280;27766;52.174;5.456;2023-05-11T10:38:20;101466.75;;;15.50;100.00
42111;BME280;27766;52.174;5.456;2023-05-11T10:40:51;101468.56;;;15.58;100.00
42111;BME280;27766;52.174;5.456;2023-05-11T10:46:36;101469.38;;;15.50;100.00
42111;BME280;27766;52.174;5.456;2023-05-11T10:54:47;101469.34;;;15.49;100.00
42111;BME280;27766;52.174;5.456;2023-05-11T11:02:57;101484.03;;;15.36;100.00
42111;BME280;27766;52.174;5.456;2023-05-11T11:05:35;101485.75;;;15.32;100.00
42111;BME280;27766;52.174;5.456;2023-05-11T11:08:05;101485.75;;;15.37;100.00
42111;BME280;27766;52.174;5.456;2023-05-11T11:10:36;101484.03;;;15.36;100.00
42111;BME280;27766;52.174;5.456;2023-05-11T11:13:11;101481.44;;;15.39;100.00
42111;BME280;27766;52.174;5.456;2023-05-11T11:20:53;101475.41;;;15.48;100.00
42111;BME280;27766;52.174;5.456;2023-05-11T11:26:10;101476.38;;;15.61;100.00
42111;BME280;27766;52.174;5.456;2023-05-11T11:31:27;101473.81;;;15.67;100.00
42111;BME280;27766;52.174;5.456;2023-05-11T11:33:56;101467.66;;;15.57;100.00
42111;BME280;27766;52.174;5.456;2023-05-11T11:37:04;101479.84;;;15.60;100.00
42111;BME280;27766;52.174;5.456;2023-05-11T11:44:38;101463.22;;;15.44;100.00
42111;BME280;27766;52.174;5.456;2023-05-11T11:47:19;101453.63;;;15.43;100.00
42111;BME280;27766;52.174;5.456;2023-05-11T11:49:48;101463.38;;;15.64;100.00
42111;BME280;27766;52.174;5.456;2023-05-11T11:54:55;101472.91;;;15.60;100.00
42111;BME280;27766;52.174;5.456;2023-05-11T12:00:06;101476.50;;;15.75;100.00
42111;BME280;27766;52.174;5.456;2023-05-11T12:02:40;101484.34;;;15.82;100.00
42111;BME280;27766;52.174;5.456;2023-05-11T12:05:15;101485.31;;;15.89;100.00
42111;BME280;27766;52.174;5.456;2023-05-11T12:07:49;101476.69;;;16.01;100.00
42111;BME280;27766;52.174;5.456;2023-05-11T12:10:21;101480.22;;;16.09;100.00
42111;BME280;27766;52.174;5.456;2023-05-11T12:12:51;101485.41;;;16.05;100.00
42111;BME280;27766;52.174;5.456;2023-05-11T12:15:28;101481.84;;;15.89;100.00
42111;BME280;27766;52.174;5.456;2023-05-11T12:17:55;101474.63;;;15.60;100.00
42111;BME280;27766;52.174;5.456;2023-05-11T12:20:22;101475.72;;;15.87;100.00
42111;BME280;27766;52.174;5.456;2023-05-11T12:22:50;101473.06;;;15.82;100.00
42111;BME280;27766;52.174;5.456;2023-05-11T12:25:18;101470.59;;;16.01;100.00
42111;BME280;27766;52.174;5.456;2023-05-11T12:30:21;101470.66;;;16.11;100.00
42111;BME280;27766;52.174;5.456;2023-05-11T12:32:48;101471.63;;;16.35;100.00
42111;BME280;27766;52.174;5.456;2023-05-11T12:35:24;101465.59;;;16.49;100.00
42111;BME280;27766;52.174;5.456;2023-05-11T12:37:52;101469.00;;;16.38;100.00
42111;BME280;27766;52.174;5.456;2023-05-11T12:40:19;101474.25;;;16.44;100.00
42111;BME280;27766;52.174;5.456;2023-05-11T12:42:53;101464.75;;;16.65;100.00
42111;BME280;27766;52.174;5.456;2023-05-11T12:45:22;101474.34;;;16.75;100.00
42111;BME280;27766;52.174;5.456;2023-05-11T12:47:52;101471.69;;;16.60;100.00
42111;BME280;27766;52.174;5.456;2023-05-11T12:50:20;101482.91;;;16.25;100.00
42111;BME280;27766;52.174;5.456;2023-05-11T12:52:47;101477.66;;;16.19;100.00
42111;BME280;27766;52.174;5.456;2023-05-11T12:55:28;101472.38;;;16.11;100.00
42111;BME280;27766;52.174;5.456;2023-05-11T12:58:15;101476.66;;;15.95;100.00
42111;BME280;27766;52.174;5.456;2023-05-11T13:00:54;101480.13;;;15.94;100.00
42111;BME280;27766;52.174;5.456;2023-05-11T13:03:29;101475.69;;;15.83;100.00
42111;BME280;27766;52.174;5.456;2023-05-11T13:06:06;101478.25;;;15.79;100.00
42111;BME280;27766;52.174;5.456;2023-05-11T13:08:42;101479.13;;;15.82;100.00
42111;BME280;27766;52.174;5.456;2023-05-11T13:11:23;101477.34;;;15.74;100.00
42111;BME280;27766;52.174;5.456;2023-05-11T13:13:55;101477.31;;;15.69;100.00
42111;BME280;27766;52.174;5.456;2023-05-11T13:16:30;101480.78;;;15.66;100.00
42111;BME280;27766;52.174;5.456;2023-05-11T13:19:02;101473.78;;;15.58;100.00
42111;BME280;27766;52.174;5.456;2023-05-11T13:21:30;101479.88;;;15.61;100.00
42111;BME280;27766;52.174;5.456;2023-05-11T13:23:59;101473.81;;;15.64;100.00
42111;BME280;27766;52.174;5.456;2023-05-11T13:26:30;101475.53;;;15.59;100.00
42111;BME280;27766;52.174;5.456;2023-05-11T13:29:00;101474.66;;;15.64;100.00
42111;BME280;27766;52.174;5.456;2023-05-11T13:31:50;101470.34;;;15.66;100.00
42111;BME280;27766;52.174;5.456;2023-05-11T13:34:18;101479.97;;;15.74;100.00
42111;BME280;27766;52.174;5.456;2023-05-11T13:36:46;101472.13;;;15.72;100.00
42111;BME280;27766;52.174;5.456;2023-05-11T13:39:13;101470.44;;;15.80;100.00
42111;BME280;27766;52.174;5.456;2023-05-11T13:41:40;101467.75;;;15.71;100.00
42111;BME280;27766;52.174;5.456;2023-05-11T13:44:07;101472.13;;;15.75;100.00